Time;durP1;ratioP1;P1;durP2;ratioP2;P2;SDS_P1;SDS_P2;PMS_P1;PMS_P2;Temp;Humidity;BMP_temperature;BMP_pressure;BME280_temperature;BME280_humidity;BME280_pressure;Samples;Min_cycle;Max_cycle;Signal;HPM_P1;HPM_P2
2023/07/29 00:01:34;;;;;;;0.00;0.00;;;22.80;99.90;;;;;;5047009;28;20041;-68
2023/07/29 00:03:59;;;;;;;0.00;0.00;;;22.80;99.90;;;;;;5043375;28;20048;-68
2023/07/29 00:06:25;;;;;;;0.00;0.00;;;22.80;99.90;;;;;;5016541;28;20021;-68
2023/07/29 00:08:51;;;;;;;0.00;0.00;;;22.70;99.90;;;;;;5038832;28;20040;-68
2023/07/29 00:11:16;;;;;;;0.10;0.10;;;22.70;99.90;;;;;;5017147;28;20399;-68
2023/07/29 00:13:42;;;;;;;0.00;0.00;;;22.70;99.90;;;;;;5037143;28;20029;-68
2023/07/29 00:16:07;;;;;;;0.00;0.00;;;22.70;99.90;;;;;;5040781;28;20048;-68
2023/07/29 00:18:33;;;;;;;0.00;0.00;;;22.60;99.90;;;;;;5036298;28;20037;-68
2023/07/29 00:20:59;;;;;;;0.00;0.00;;;22.70;99.90;;;;;;5037283;28;20108;-68
2023/07/29 00:23:24;;;;;;;0.00;0.00;;;22.70;99.90;;;;;;5023836;28;20115;-68
2023/07/29 00:25:50;;;;;;;0.00;0.00;;;22.70;99.90;;;;;;5040040;28;20032;-68
2023/07/29 00:28:16;;;;;;;0.00;0.00;;;22.60;99.90;;;;;;5023292;28;20024;-68
2023/07/29 00:30:41;;;;;;;0.00;0.00;;;22.60;99.90;;;;;;5032472;28;20053;-68
2023/07/29 00:33:07;;;;;;;0.00;0.00;;;22.60;99.90;;;;;;5022377;28;20033;-68
2023/07/29 00:35:34;;;;;;;0.00;0.00;;;22.60;99.90;;;;;;5035310;28;20025;-68
2023/07/29 00:37:59;;;;;;;0.00;0.00;;;22.50;99.90;;;;;;5042864;28;20793;-68
2023/07/29 00:40:28;;;;;;;0.00;0.00;;;22.50;99.90;;;;;;5034438;28;20044;-68
2023/07/29 00:42:54;;;;;;;0.00;0.00;;;22.50;99.90;;;;;;5046767;28;20068;-68
2023/07/29 00:45:20;;;;;;;0.00;0.00;;;22.40;99.90;;;;;;5038696;28;20571;-68
2023/07/29 00:47:46;;;;;;;0.00;0.00;;;22.50;99.90;;;;;;5040975;28;20062;-68
2023/07/29 00:50:14;;;;;;;0.00;0.00;;;22.40;99.90;;;;;;5041730;28;20025;-68
2023/07/29 00:52:39;;;;;;;0.00;0.00;;;22.40;99.90;;;;;;5042097;28;20079;-68
2023/07/29 00:55:07;;;;;;;0.10;0.10;;;22.50;99.90;;;;;;5041820;28;20046;-68
2023/07/29 00:57:33;;;;;;;0.00;0.00;;;22.50;99.90;;;;;;5045617;28;20022;-68
2023/07/29 01:00:00;;;;;;;0.00;0.00;;;22.50;99.90;;;;;;5048141;28;20379;-68
2023/07/29 01:02:27;;;;;;;0.20;0.20;;;22.50;99.90;;;;;;5039368;28;20027;-68
2023/07/29 01:04:55;;;;;;;0.00;0.00;;;22.60;99.90;;;;;;5037830;28;20055;-68
2023/07/29 01:07:23;;;;;;;0.00;0.00;;;22.60;99.90;;;;;;5037759;28;20024;-68
2023/07/29 01:10:02;;;;;;;0.00;0.00;;;22.60;99.90;;;;;;5034888;28;20029;-68
2023/07/29 01:12:42;;;;;;;0.10;0.00;;;22.60;99.90;;;;;;5041595;28;20031;-68
2023/07/29 01:15:11;;;;;;;0.00;0.00;;;22.60;99.90;;;;;;5038817;28;20013;-68
2023/07/29 01:17:43;;;;;;;0.00;0.00;;;22.50;99.90;;;;;;5018286;28;20147;-68
2023/07/29 01:20:17;;;;;;;0.00;0.00;;;22.50;99.90;;;;;;5039506;28;20502;-68
2023/07/29 01:22:43;;;;;;;0.00;0.00;;;22.50;99.90;;;;;;5038081;28;20112;-68
2023/07/29 01:25:09;;;;;;;0.00;0.00;;;22.40;99.90;;;;;;5042916;28;20131;-68
2023/07/29 01:27:35;;;;;;;0.22;0.17;;;22.50;99.90;;;;;;5049920;28;20125;-68
2023/07/29 01:30:02;;;;;;;0.00;0.00;;;22.40;99.90;;;;;;5023763;28;20049;-68
2023/07/29 01:32:52;;;;;;;0.00;0.00;;;22.40;99.90;;;;;;5046775;28;20031;-68
2023/07/29 01:35:36;;;;;;;0.00;0.00;;;22.40;99.90;;;;;;5040068;28;20031;-68
2023/07/29 01:38:21;;;;;;;0.00;0.00;;;22.30;99.90;;;;;;5044471;28;20025;-68
2023/07/29 01:40:50;;;;;;;0.00;0.00;;;22.30;99.90;;;;;;5037303;28;20023;-68
2023/07/29 01:43:17;;;;;;;0.00;0.00;;;22.30;99.90;;;;;;5042966;28;20024;-68
2023/07/29 01:45:43;;;;;;;0.00;0.00;;;22.30;99.90;;;;;;5048086;28;20021;-68
2023/07/29 01:48:08;;;;;;;0.00;0.00;;;22.30;99.90;;;;;;5038277;28;20101;-68
2023/07/29 01:50:34;;;;;;;0.00;0.00;;;22.20;99.90;;;;;;5041585;28;20476;-68
2023/07/29 01:53:00;;;;;;;0.00;0.00;;;22.10;99.90;;;;;;5038477;28;20161;-68
2023/07/29 01:55:26;;;;;;;0.00;0.00;;;22.20;99.90;;;;;;5046582;28;20025;-68
2023/07/29 01:57:52;;;;;;;0.00;0.00;;;22.20;99.90;;;;;;5035007;28;20092;-68
2023/07/29 02:00:21;;;;;;;0.00;0.00;;;22.10;99.90;;;;;;5042488;28;20062;-68
2023/07/29 02:02:47;;;;;;;0.00;0.00;;;22.10;99.90;;;;;;5035261;28;20127;-68
2023/07/29 02:05:12;;;;;;;0.10;0.10;;;22.10;99.90;;;;;;5044701;28;20140;-68
2023/07/29 02:07:38;;;;;;;0.00;0.00;;;22.10;99.90;;;;;;5026959;28;20415;-68
2023/07/29 02:10:04;;;;;;;0.00;0.00;;;22.10;99.90;;;;;;5045934;28;20630;-68
2023/07/29 02:12:30;;;;;;;0.00;0.00;;;22.20;99.90;;;;;;5036852;28;20049;-68
2023/07/29 02:14:55;;;;;;;0.00;0.00;;;22.20;99.90;;;;;;5022368;28;20399;-68
2023/07/29 02:17:21;;;;;;;0.00;0.00;;;22.20;99.90;;;;;;5036453;28;20092;-68
2023/07/29 02:19:47;;;;;;;0.00;0.00;;;22.20;99.90;;;;;;5026208;28;20036;-68
2023/07/29 02:22:17;;;;;;;0.30;0.25;;;22.20;99.90;;;;;;5040656;28;20021;-68
2023/07/29 02:24:43;;;;;;;0.00;0.00;;;22.10;99.90;;;;;;5050671;28;20289;-68
2023/07/29 02:27:09;;;;;;;0.00;0.00;;;22.20;99.90;;;;;;5024330;28;20487;-68
2023/07/29 02:29:34;;;;;;;0.00;0.00;;;22.20;99.90;;;;;;5028067;28;20025;-68
2023/07/29 02:32:00;;;;;;;0.38;0.38;;;22.10;99.90;;;;;;5039534;28;20032;-68
2023/07/29 02:34:26;;;;;;;0.00;0.00;;;22.10;99.90;;;;;;5023974;28;20032;-68
2023/07/29 02:36:51;;;;;;;0.00;0.00;;;22.10;99.90;;;;;;5024609;28;20020;-68
2023/07/29 02:39:17;;;;;;;0.00;0.00;;;22.10;99.90;;;;;;5039028;28;20024;-68
2023/07/29 02:41:43;;;;;;;0.03;0.00;;;22.10;99.90;;;;;;5042265;28;20024;-68
2023/07/29 02:44:08;;;;;;;0.00;0.00;;;22.20;99.90;;;;;;5035350;28;20033;-68
2023/07/29 02:46:34;;;;;;;0.00;0.00;;;22.20;99.90;;;;;;5035507;28;20136;-68
2023/07/29 02:49:02;;;;;;;0.00;0.00;;;22.20;99.90;;;;;;5026649;28;20033;-68
2023/07/29 02:51:28;;;;;;;0.00;0.00;;;22.20;99.90;;;;;;5022640;28;20028;-68
2023/07/29 02:53:54;;;;;;;0.00;0.00;;;22.20;99.90;;;;;;5045951;28;20035;-68
2023/07/29 02:56:19;;;;;;;0.25;0.20;;;22.20;99.90;;;;;;5040323;28;20106;-68
2023/07/29 02:58:45;;;;;;;0.00;0.00;;;22.20;99.90;;;;;;5037036;28;20040;-68
2023/07/29 03:01:11;;;;;;;0.00;0.00;;;22.10;99.90;;;;;;5040411;28;20120;-68
2023/07/29 03:03:37;;;;;;;;;;;22.10;99.90;;;;;;5026369;28;20037;-68
2023/07/29 03:06:05;;;;;;;0.00;0.00;;;22.10;99.90;;;;;;5033001;28;19912;-68
2023/07/29 03:08:31;;;;;;;0.00;0.00;;;22.10;99.90;;;;;;5049590;28;20021;-68
2023/07/29 03:10:57;;;;;;;0.00;0.00;;;22.00;99.90;;;;;;5037421;28;20356;-68
2023/07/29 03:13:23;;;;;;;0.00;0.00;;;22.10;99.90;;;;;;5023079;28;20659;-68
2023/07/29 03:15:49;;;;;;;0.00;0.00;;;22.00;99.90;;;;;;5030265;28;20027;-68
2023/07/29 03:18:15;;;;;;;0.00;0.00;;;22.00;99.90;;;;;;5046096;28;20037;-68
2023/07/29 03:20:41;;;;;;;0.00;0.00;;;22.00;99.90;;;;;;5025339;28;20096;-68
2023/07/29 03:23:07;;;;;;;0.20;0.20;;;21.90;99.90;;;;;;5033618;28;20036;-68
2023/07/29 03:25:32;;;;;;;0.00;0.00;;;21.90;99.90;;;;;;5034305;28;20063;-68
2023/07/29 03:27:58;;;;;;;0.00;0.00;;;21.90;99.90;;;;;;5045793;28;20033;-68
2023/07/29 03:30:24;;;;;;;0.00;0.00;;;21.90;99.90;;;;;;5039058;28;20029;-68
2023/07/29 03:32:50;;;;;;;0.00;0.00;;;21.80;99.90;;;;;;5040804;28;20078;-68
2023/07/29 03:35:16;;;;;;;0.00;0.00;;;21.90;99.90;;;;;;5024191;28;20029;-68
2023/07/29 03:37:42;;;;;;;0.00;0.00;;;21.90;99.90;;;;;;5040870;28;20024;-68
2023/07/29 03:40:11;;;;;;;0.00;0.00;;;22.00;99.90;;;;;;5039696;28;20514;-68
2023/07/29 03:42:36;;;;;;;0.00;0.00;;;21.90;99.90;;;;;;5019996;28;20143;-68
2023/07/29 03:45:02;;;;;;;0.00;0.00;;;22.00;99.90;;;;;;5038657;28;20148;-68
2023/07/29 03:47:28;;;;;;;0.15;0.15;;;22.00;99.90;;;;;;5044149;28;20021;-68
2023/07/29 03:49:54;;;;;;;0.00;0.00;;;22.00;99.90;;;;;;5035365;28;20036;-68
2023/07/29 03:52:19;;;;;;;0.08;0.08;;;22.00;99.90;;;;;;5035723;28;20078;-68
2023/07/29 03:54:45;;;;;;;0.00;0.00;;;21.90;99.90;;;;;;5024623;28;20478;-68
2023/07/29 03:57:11;;;;;;;0.00;0.00;;;21.90;99.90;;;;;;5048885;28;20025;-68
2023/07/29 03:59:37;;;;;;;0.00;0.00;;;21.90;99.90;;;;;;5034729;28;20032;-68
2023/07/29 04:02:02;;;;;;;0.00;0.00;;;21.80;99.90;;;;;;5025150;28;20431;-68
2023/07/29 04:04:28;;;;;;;0.00;0.00;;;21.80;99.90;;;;;;5032218;28;20638;-68
2023/07/29 04:06:54;;;;;;;0.00;0.00;;;21.80;99.90;;;;;;5032110;28;20036;-68
2023/07/29 04:09:19;;;;;;;0.00;0.00;;;21.80;99.90;;;;;;5032446;28;20082;-68
2023/07/29 04:11:45;;;;;;;0.00;0.00;;;21.70;99.90;;;;;;5034088;28;20115;-68
2023/07/29 04:14:11;;;;;;;0.00;0.00;;;21.70;99.90;;;;;;5037884;28;20119;-68
2023/07/29 04:16:36;;;;;;;0.00;0.00;;;21.70;99.90;;;;;;5027865;28;20086;-68
2023/07/29 04:19:02;;;;;;;0.00;0.00;;;21.80;99.90;;;;;;5036607;28;20108;-68
2023/07/29 04:21:27;;;;;;;0.00;0.00;;;21.70;99.90;;;;;;5036025;28;20016;-68
2023/07/29 04:23:53;;;;;;;0.00;0.00;;;21.70;99.90;;;;;;5022766;28;20052;-68
2023/07/29 04:26:19;;;;;;;0.00;0.00;;;21.70;99.90;;;;;;5041950;28;20072;-68
2023/07/29 04:28:44;;;;;;;0.00;0.00;;;21.80;99.90;;;;;;5037470;28;20450;-67
2023/07/29 04:31:10;;;;;;;0.00;0.00;;;21.80;99.90;;;;;;5030350;28;20043;-68
2023/07/29 04:33:36;;;;;;;0.00;0.00;;;21.90;99.90;;;;;;5031025;28;20030;-67
2023/07/29 04:36:01;;;;;;;0.00;0.00;;;21.90;99.90;;;;;;5035314;28;20038;-68
2023/07/29 04:38:32;;;;;;;0.00;0.00;;;21.90;99.90;;;;;;5025517;28;20048;-67
2023/07/29 04:41:01;;;;;;;0.00;0.00;;;21.90;99.90;;;;;;5034738;28;20025;-67
2023/07/29 04:43:32;;;;;;;0.00;0.00;;;22.00;99.90;;;;;;5019322;28;20049;-68
2023/07/29 04:45:58;;;;;;;0.00;0.00;;;22.00;99.90;;;;;;5038114;28;20035;-67
2023/07/29 04:48:24;;;;;;;0.00;0.00;;;21.90;99.90;;;;;;5039790;28;20041;-68
2023/07/29 04:50:49;;;;;;;0.00;0.00;;;21.90;99.90;;;;;;5023551;28;20696;-68
2023/07/29 04:53:15;;;;;;;0.00;0.00;;;21.90;99.90;;;;;;5040368;28;20017;-68
2023/07/29 04:55:44;;;;;;;0.00;0.00;;;22.00;99.90;;;;;;5043877;28;20031;-67
2023/07/29 04:58:10;;;;;;;0.00;0.00;;;22.10;99.90;;;;;;5039262;28;20460;-67
2023/07/29 05:00:35;;;;;;;0.00;0.00;;;22.10;99.90;;;;;;5042315;28;20031;-66
2023/07/29 05:03:01;;;;;;;0.00;0.00;;;22.10;99.90;;;;;;5031416;28;20041;-66
2023/07/29 05:05:27;;;;;;;0.08;0.08;;;22.20;99.90;;;;;;5043345;28;20071;-65
2023/07/29 05:07:53;;;;;;;0.00;0.00;;;22.30;99.90;;;;;;5035987;28;20060;-65
2023/07/29 05:10:19;;;;;;;0.00;0.00;;;22.40;99.90;;;;;;5041318;28;20020;-66
2023/07/29 05:12:44;;;;;;;;;;;22.50;99.90;;;;;;5043424;28;20028;-68
2023/07/29 05:15:10;;;;;;;0.00;0.00;;;22.50;99.90;;;;;;5044491;28;20316;-67
2023/07/29 05:17:36;;;;;;;0.00;0.00;;;22.60;99.90;;;;;;5042036;28;20032;-68
2023/07/29 05:20:03;;;;;;;0.00;0.00;;;22.70;99.90;;;;;;5046188;28;20108;-67
2023/07/29 05:22:28;;;;;;;0.00;0.00;;;22.70;99.90;;;;;;5039023;28;20032;-68
2023/07/29 05:24:54;;;;;;;0.00;0.00;;;22.80;99.90;;;;;;5050295;28;20548;-68
2023/07/29 05:27:19;;;;;;;0.00;0.00;;;22.90;99.90;;;;;;5039164;28;20023;-68
2023/07/29 05:29:45;;;;;;;0.03;0.03;;;22.90;99.90;;;;;;5028396;28;20159;-68
2023/07/29 05:32:11;;;;;;;0.00;0.00;;;23.10;99.90;;;;;;5042207;28;20028;-68
2023/07/29 05:34:36;;;;;;;0.00;0.00;;;23.10;99.90;;;;;;5046549;28;20029;-65
2023/07/29 05:37:02;;;;;;;0.00;0.00;;;23.10;99.90;;;;;;5044353;28;20018;-65
2023/07/29 05:39:28;;;;;;;0.00;0.00;;;23.20;99.90;;;;;;5043154;28;20048;-65
2023/07/29 05:41:54;;;;;;;;;;;23.30;99.90;;;;;;5043053;28;20029;-66
2023/07/29 05:44:20;;;;;;;0.00;0.00;;;23.30;99.90;;;;;;5040113;28;19908;-65
2023/07/29 05:46:45;;;;;;;0.00;0.00;;;23.30;99.90;;;;;;5044092;28;20028;-66
2023/07/29 05:49:11;;;;;;;0.00;0.00;;;23.20;99.90;;;;;;5040795;28;20048;-65
2023/07/29 05:51:37;;;;;;;;;;;23.30;99.90;;;;;;5031631;28;20020;-65
2023/07/29 05:54:02;;;;;;;0.00;0.00;;;23.40;99.90;;;;;;5036486;28;20383;-65
2023/07/29 05:56:29;;;;;;;0.00;0.00;;;23.40;99.90;;;;;;5046979;28;20021;-65
2023/07/29 05:58:55;;;;;;;0.00;0.00;;;23.50;99.90;;;;;;5038910;28;20056;-65
2023/07/29 06:01:21;;;;;;;0.00;0.00;;;23.60;99.90;;;;;;5039901;28;20025;-65
2023/07/29 06:03:47;;;;;;;0.00;0.00;;;23.70;99.90;;;;;;5040034;28;20090;-66
2023/07/29 06:06:13;;;;;;;0.00;0.00;;;23.80;99.90;;;;;;5037364;28;20021;-65
2023/07/29 06:08:38;;;;;;;0.00;0.00;;;23.80;99.90;;;;;;5028728;28;20040;-65
2023/07/29 06:11:06;;;;;;;0.00;0.00;;;24.00;99.90;;;;;;5032347;28;20030;-65
2023/07/29 06:13:32;;;;;;;0.00;0.00;;;24.10;99.90;;;;;;5035240;28;20033;-65
2023/07/29 06:15:58;;;;;;;0.00;0.00;;;24.30;99.90;;;;;;5040673;28;20107;-65
2023/07/29 06:18:24;;;;;;;0.00;0.00;;;24.60;99.90;;;;;;5035014;28;20147;-65
2023/07/29 06:20:50;;;;;;;0.00;0.00;;;24.70;99.90;;;;;;5023758;28;20039;-65
2023/07/29 06:23:16;;;;;;;0.25;0.08;;;24.70;99.90;;;;;;5035765;28;20029;-66
2023/07/29 06:25:41;;;;;;;;;;;24.60;99.90;;;;;;5031018;28;20123;-65
2023/07/29 06:28:07;;;;;;;0.00;0.00;;;24.60;99.90;;;;;;5039879;28;19969;-65
2023/07/29 06:30:32;;;;;;;;;;;24.50;99.90;;;;;;5038728;28;20033;-65
2023/07/29 06:32:58;;;;;;;0.00;0.00;;;24.30;99.90;;;;;;5040942;28;19908;-65
2023/07/29 06:35:24;;;;;;;0.00;0.00;;;24.30;99.90;;;;;;5034987;28;20035;-64
2023/07/29 06:37:49;;;;;;;;;;;24.20;99.90;;;;;;5020216;28;20044;-65
2023/07/29 06:40:15;;;;;;;0.00;0.00;;;24.30;99.90;;;;;;5040631;28;20339;-65
2023/07/29 06:42:40;;;;;;;0.00;0.00;;;24.50;99.90;;;;;;5028144;28;20024;-65
2023/07/29 06:45:06;;;;;;;;;;;24.60;99.90;;;;;;5027496;28;20113;-65
2023/07/29 06:47:32;;;;;;;0.00;0.00;;;24.70;99.90;;;;;;5039407;28;19916;-66
2023/07/29 06:49:57;;;;;;;;;;;25.00;99.90;;;;;;5019967;28;20028;-64
2023/07/29 06:52:23;;;;;;;0.00;0.00;;;25.20;99.80;;;;;;5045849;28;19908;-64
2023/07/29 06:54:49;;;;;;;;;;;25.40;99.50;;;;;;5040702;28;20473;-66
2023/07/29 06:57:14;;;;;;;0.00;0.00;;;25.40;99.40;;;;;;5044560;28;19905;-66
2023/07/29 06:59:40;;;;;;;;;;;25.50;99.20;;;;;;5041580;28;20028;-65
2023/07/29 07:02:06;;;;;;;0.00;0.00;;;25.80;99.10;;;;;;5040462;28;20566;-65
2023/07/29 07:04:32;;;;;;;0.00;0.00;;;26.00;98.90;;;;;;5038577;28;20036;-65
2023/07/29 07:06:58;;;;;;;;;;;26.10;98.60;;;;;;5034976;28;20025;-65
2023/07/29 07:09:23;;;;;;;0.00;0.00;;;26.20;98.30;;;;;;5037889;28;19908;-65
2023/07/29 07:11:49;;;;;;;;;;;26.00;98.00;;;;;;5032085;28;20025;-67
2023/07/29 07:14:15;;;;;;;0.10;0.10;;;26.10;98.30;;;;;;5042894;28;19912;-67
2023/07/29 07:16:40;;;;;;;;;;;26.20;98.00;;;;;;5036648;28;20020;-67
2023/07/29 07:19:06;;;;;;;0.00;0.00;;;26.40;97.70;;;;;;5036271;28;19970;-65
2023/07/29 07:21:32;;;;;;;;;;;26.70;97.40;;;;;;5033348;28;20030;-67
2023/07/29 07:23:58;;;;;;;0.00;0.00;;;27.00;96.90;;;;;;5034108;28;19905;-67
2023/07/29 07:26:23;;;;;;;;;;;27.20;96.50;;;;;;5036089;28;20044;-67
2023/07/29 07:28:51;;;;;;;0.00;0.00;;;27.90;95.90;;;;;;5041231;28;20466;-68
2023/07/29 07:31:17;;;;;;;0.00;0.00;;;30.20;93.60;;;;;;5022725;28;20440;-71
2023/07/29 07:33:42;;;;;;;0.00;0.00;;;33.30;89.40;;;;;;5034488;28;20021;-68
2023/07/29 07:36:08;;;;;;;0.00;0.00;;;35.80;77.80;;;;;;5028339;28;20499;-63
2023/07/29 07:38:34;;;;;;;0.10;0.10;;;37.20;71.80;;;;;;5035584;28;20021;-67
2023/07/29 07:40:59;;;;;;;0.00;0.00;;;37.90;68.60;;;;;;5036347;28;20135;-69
2023/07/29 07:43:25;;;;;;;0.05;0.05;;;38.80;64.30;;;;;;5031909;28;20029;-68
2023/07/29 07:45:57;;;;;;;0.00;0.00;;;39.60;61.70;;;;;;5034711;28;20489;-68
2023/07/29 07:48:23;;;;;;;0.00;0.00;;;40.50;60.30;;;;;;5033814;28;20641;-69
2023/07/29 07:50:48;;;;;;;0.00;0.00;;;41.50;58.60;;;;;;5035830;28;20021;-72
2023/07/29 07:53:14;;;;;;;0.00;0.00;;;42.30;56.30;;;;;;5038945;28;20033;-72
2023/07/29 07:55:40;;;;;;;0.00;0.00;;;42.40;54.80;;;;;;5024353;28;20048;-72
2023/07/29 07:58:05;;;;;;;0.00;0.00;;;42.70;54.20;;;;;;5035138;28;20031;-72
2023/07/29 08:00:34;;;;;;;0.38;0.00;;;42.60;53.30;;;;;;5027951;28;20053;-72
2023/07/29 08:02:59;;;;;;;0.00;0.00;;;42.60;52.80;;;;;;5037553;28;21074;-72
2023/07/29 08:05:25;;;;;;;0.03;0.03;;;42.70;52.80;;;;;;5041051;28;20040;-73
2023/07/29 08:07:51;;;;;;;0.00;0.00;;;42.50;52.10;;;;;;5022102;28;20028;-73
2023/07/29 08:10:16;;;;;;;0.00;0.00;;;42.20;52.40;;;;;;5027393;28;20081;-73
2023/07/29 08:12:42;;;;;;;0.00;0.00;;;42.50;52.10;;;;;;5040122;28;20079;-73
2023/07/29 08:15:08;;;;;;;0.00;0.00;;;41.30;53.10;;;;;;5017422;28;20112;-73
2023/07/29 08:17:35;;;;;;;0.10;0.10;;;41.80;52.40;;;;;;5022843;28;20123;-72
2023/07/29 08:20:01;;;;;;;0.00;0.00;;;42.20;51.90;;;;;;5041251;28;20033;-73
2023/07/29 08:22:26;;;;;;;0.00;0.00;;;42.80;51.50;;;;;;5034136;28;20048;-73
2023/07/29 08:24:52;;;;;;;0.00;0.00;;;44.00;50.80;;;;;;5028945;28;20031;-73
2023/07/29 08:27:18;;;;;;;0.00;0.00;;;44.70;50.00;;;;;;5042569;28;20025;-74
2023/07/29 08:29:44;;;;;;;0.10;0.10;;;45.20;49.40;;;;;;5054519;28;20032;-73
2023/07/29 08:32:10;;;;;;;0.00;0.00;;;45.70;48.80;;;;;;5032753;28;20043;-73
2023/07/29 08:34:36;;;;;;;0.10;0.10;;;45.60;48.10;;;;;;5027186;28;21395;-73
2023/07/29 08:37:02;;;;;;;0.00;0.00;;;45.60;48.10;;;;;;5024461;28;20026;-73
2023/07/29 08:39:28;;;;;;;0.00;0.00;;;45.80;47.70;;;;;;5040678;28;20079;-73
2023/07/29 08:42:11;;;;;;;0.00;0.00;;;46.00;47.60;;;;;;5018775;28;20025;-72
2023/07/29 08:44:41;;;;;;;0.00;0.00;;;46.20;47.20;;;;;;5038677;28;20025;-73
2023/07/29 08:47:07;;;;;;;0.32;0.32;;;46.20;46.60;;;;;;5043195;28;20116;-73
2023/07/29 08:49:33;;;;;;;0.20;0.05;;;46.80;47.00;;;;;;5046155;28;20112;-73
2023/07/29 08:52:01;;;;;;;0.03;0.03;;;47.00;46.50;;;;;;5038510;28;20047;-73
2023/07/29 08:54:26;;;;;;;0.00;0.00;;;47.10;46.60;;;;;;5027047;28;20536;-74
2023/07/29 08:56:52;;;;;;;0.00;0.00;;;47.30;46.00;;;;;;5038547;28;20025;-73
2023/07/29 08:59:19;;;;;;;0.00;0.00;;;47.00;46.10;;;;;;5024749;28;20021;-74
2023/07/29 09:01:44;;;;;;;0.00;0.00;;;47.50;45.80;;;;;;5043701;28;20017;-74
2023/07/29 09:04:10;;;;;;;0.00;0.00;;;47.20;44.80;;;;;;5041199;28;20028;-74
2023/07/29 09:06:38;;;;;;;0.00;0.00;;;47.00;45.80;;;;;;5042767;28;21005;-74
2023/07/29 09:09:04;;;;;;;0.10;0.10;;;46.20;46.10;;;;;;5037817;28;20021;-73
2023/07/29 09:11:30;;;;;;;0.00;0.00;;;45.60;46.20;;;;;;5024570;28;20533;-73
2023/07/29 09:13:56;;;;;;;0.00;0.00;;;44.70;46.80;;;;;;5044174;28;20056;-73
2023/07/29 09:16:22;;;;;;;0.00;0.00;;;45.20;46.50;;;;;;5038947;28;20017;-73
2023/07/29 09:18:50;;;;;;;0.00;0.00;;;45.90;46.40;;;;;;5037032;28;20032;-73
2023/07/29 09:21:17;;;;;;;0.00;0.00;;;45.30;46.00;;;;;;5032772;28;20021;-74
2023/07/29 09:23:44;;;;;;;0.00;0.00;;;44.70;46.50;;;;;;5028069;28;20040;-67
2023/07/29 09:26:10;;;;;;;0.00;0.00;;;44.10;46.90;;;;;;5043793;28;20392;-73
2023/07/29 09:28:38;;;;;;;0.00;0.00;;;44.20;46.80;;;;;;5045497;28;20132;-73
2023/07/29 09:31:04;;;;;;;0.00;0.00;;;44.00;46.70;;;;;;5037903;28;20534;-73
2023/07/29 09:33:36;;;;;;;0.00;0.00;;;43.60;47.10;;;;;;5047459;28;20029;-72
2023/07/29 09:36:08;;;;;;;0.00;0.00;;;43.90;46.90;;;;;;5026992;28;20037;-72
2023/07/29 09:38:35;;;;;;;0.00;0.00;;;44.10;47.50;;;;;;5036935;28;20762;-74
2023/07/29 09:41:01;;;;;;;0.00;0.00;;;43.90;47.10;;;;;;5042726;28;20022;-73
2023/07/29 09:43:37;;;;;;;0.00;0.00;;;44.40;46.70;;;;;;5037932;28;20786;-73
2023/07/29 09:46:05;;;;;;;0.00;0.00;;;44.20;46.50;;;;;;5024776;28;20032;-73
2023/07/29 09:48:35;;;;;;;0.05;0.03;;;44.00;46.70;;;;;;5040562;28;20029;-72
2023/07/29 09:51:13;;;;;;;0.10;0.00;;;44.00;46.20;;;;;;5024909;28;20104;-73
2023/07/29 09:53:47;;;;;;;0.00;0.00;;;43.80;45.90;;;;;;5043358;28;20091;-72
2023/07/29 09:56:14;;;;;;;0.00;0.00;;;43.40;46.40;;;;;;5043226;28;20013;-73
2023/07/29 09:58:39;;;;;;;0.00;0.00;;;43.30;46.40;;;;;;5035123;28;20028;-72
2023/07/29 10:01:06;;;;;;;0.00;0.00;;;43.30;46.40;;;;;;5045629;28;20025;-73
2023/07/29 10:03:35;;;;;;;0.00;0.00;;;43.40;46.60;;;;;;5039495;28;20491;-73
2023/07/29 10:06:06;;;;;;;0.00;0.00;;;42.90;46.70;;;;;;5026494;28;20381;-73
2023/07/29 10:08:35;;;;;;;0.00;0.00;;;42.30;47.10;;;;;;5044223;28;20357;-73
2023/07/29 10:11:01;;;;;;;0.00;0.00;;;42.40;46.90;;;;;;5036200;28;20032;-73
2023/07/29 10:13:28;;;;;;;0.00;0.00;;;42.60;47.10;;;;;;5038582;28;20020;-72
2023/07/29 10:15:55;;;;;;;0.00;0.00;;;43.30;46.90;;;;;;5034876;28;20528;-74
2023/07/29 10:18:23;;;;;;;0.13;0.13;;;43.10;47.10;;;;;;5043376;28;20013;-73
2023/07/29 10:20:51;;;;;;;0.00;0.00;;;43.30;46.90;;;;;;5037407;28;20036;-73
2023/07/29 10:23:21;;;;;;;0.03;0.03;;;43.60;46.50;;;;;;5043338;28;20028;-72
2023/07/29 10:25:57;;;;;;;0.00;0.00;;;43.80;46.50;;;;;;5033887;28;20033;-73
2023/07/29 10:28:26;;;;;;;0.00;0.00;;;44.10;46.30;;;;;;5032843;28;20704;-72
2023/07/29 10:30:52;;;;;;;0.00;0.00;;;43.60;45.90;;;;;;5030155;28;20040;-72
2023/07/29 10:33:18;;;;;;;0.00;0.00;;;43.50;46.70;;;;;;5026639;28;20625;-72
2023/07/29 10:35:45;;;;;;;0.00;0.00;;;44.00;46.90;;;;;;5026524;28;20054;-72
2023/07/29 10:38:11;;;;;;;0.00;0.00;;;44.50;46.60;;;;;;5043083;28;20803;-73
2023/07/29 10:40:58;;;;;;;0.00;0.00;;;45.10;46.30;;;;;;5021093;28;20025;-72
2023/07/29 10:43:27;;;;;;;0.00;0.00;;;45.50;45.90;;;;;;5029261;28;20029;-75
2023/07/29 10:45:53;;;;;;;0.20;0.20;;;45.80;45.50;;;;;;5036879;28;20031;-73
2023/07/29 10:48:37;;;;;;;0.00;0.00;;;46.30;45.80;;;;;;5040276;28;20029;-74
2023/07/29 10:51:36;;;;;;;0.00;0.00;;;46.40;45.00;;;;;;5044827;28;20033;-73
2023/07/29 10:54:03;;;;;;;0.00;0.00;;;44.80;44.80;;;;;;5001302;28;20091;-72
2023/07/29 10:56:31;;;;;;;0.00;0.00;;;42.90;45.50;;;;;;5022461;28;20082;-73
2023/07/29 10:59:16;;;;;;;0.00;0.00;;;43.00;46.10;;;;;;5036598;28;20021;-73
2023/07/29 11:01:49;;;;;;;0.10;0.10;;;43.40;46.00;;;;;;5045091;28;20027;-73
2023/07/29 11:04:24;;;;;;;0.00;0.00;;;44.00;45.10;;;;;;5027303;28;20037;-72
2023/07/29 11:07:23;;;;;;;0.00;0.00;;;43.70;45.80;;;;;;5037604;28;20032;-73
2023/07/29 11:09:51;;;;;;;0.00;0.00;;;41.10;46.90;;;;;;5036112;28;20028;-73
2023/07/29 11:12:36;;;;;;;0.00;0.00;;;39.40;48.50;;;;;;5021491;28;20723;-73
2023/07/29 11:15:11;;;;;;;0.00;0.00;;;38.40;49.20;;;;;;5040778;28;20164;-72
2023/07/29 11:17:50;;;;;;;0.00;0.00;;;37.60;49.60;;;;;;5035650;28;20021;-73
2023/07/29 11:20:17;;;;;;;0.00;0.00;;;37.00;50.30;;;;;;5032904;28;20051;-73
2023/07/29 11:22:43;;;;;;;0.00;0.00;;;36.30;50.80;;;;;;5040394;28;20024;-73
2023/07/29 11:25:12;;;;;;;0.00;0.00;;;35.50;51.90;;;;;;5039109;28;20383;-74
2023/07/29 11:27:38;;;;;;;0.00;0.00;;;35.10;52.60;;;;;;5038362;28;20178;-72
2023/07/29 11:30:06;;;;;;;0.00;0.00;;;34.60;53.70;;;;;;5039806;28;20124;-73
2023/07/29 11:32:33;;;;;;;0.00;0.00;;;34.20;53.40;;;;;;5028316;28;20035;-72
2023/07/29 11:35:14;;;;;;;0.00;0.00;;;33.80;53.90;;;;;;5043420;28;20013;-71
2023/07/29 11:37:40;;;;;;;0.00;0.00;;;33.80;54.70;;;;;;5041889;28;20472;-73
2023/07/29 11:40:06;;;;;;;0.00;0.00;;;33.70;54.40;;;;;;5039544;28;20045;-72
2023/07/29 11:42:35;;;;;;;0.00;0.00;;;33.80;54.90;;;;;;5036396;28;20029;-72
2023/07/29 11:45:03;;;;;;;0.00;0.00;;;33.80;54.60;;;;;;5020266;28;20029;-70
2023/07/29 11:47:29;;;;;;;0.00;0.00;;;33.80;55.20;;;;;;5021223;28;20043;-73
2023/07/29 11:50:00;;;;;;;0.00;0.00;;;33.60;54.90;;;;;;5015447;28;20025;-72
2023/07/29 11:52:27;;;;;;;0.00;0.00;;;33.70;56.00;;;;;;5043939;28;20024;-75
2023/07/29 11:54:53;;;;;;;0.00;0.00;;;33.60;54.20;;;;;;5034480;28;20021;-71
2023/07/29 11:57:20;;;;;;;0.00;0.00;;;33.80;54.40;;;;;;5036753;28;20383;-73
2023/07/29 11:59:46;;;;;;;0.00;0.00;;;33.70;54.20;;;;;;5031258;28;20028;-73
2023/07/29 12:02:20;;;;;;;0.00;0.00;;;33.60;54.10;;;;;;5025662;28;20024;-71
2023/07/29 12:04:47;;;;;;;0.00;0.00;;;33.40;54.30;;;;;;5035087;28;20036;-73
2023/07/29 12:07:14;;;;;;;0.00;0.00;;;33.50;54.90;;;;;;5040559;28;20035;-72
2023/07/29 12:09:41;;;;;;;0.00;0.00;;;33.70;54.50;;;;;;5026136;28;20361;-72
2023/07/29 12:12:07;;;;;;;0.00;0.00;;;33.90;54.10;;;;;;5016064;28;20025;-73
2023/07/29 12:14:35;;;;;;;0.00;0.00;;;34.00;54.40;;;;;;5031496;28;20053;-72
2023/07/29 12:17:02;;;;;;;0.00;0.00;;;33.90;54.60;;;;;;5028787;28;20029;-72
2023/07/29 12:19:38;;;;;;;0.00;0.00;;;33.80;55.10;;;;;;5039425;28;20096;-73
2023/07/29 12:22:06;;;;;;;0.00;0.00;;;33.50;55.40;;;;;;5040257;28;20424;-72
2023/07/29 12:24:35;;;;;;;0.00;0.00;;;33.70;55.40;;;;;;5043122;28;20372;-74
2023/07/29 12:27:01;;;;;;;0.00;0.00;;;33.90;55.50;;;;;;5043708;28;20033;-72
2023/07/29 12:29:27;;;;;;;0.00;0.00;;;34.10;55.30;;;;;;5037610;28;20136;-71
2023/07/29 12:32:00;;;;;;;0.00;0.00;;;34.10;55.60;;;;;;5024011;28;20040;-72
2023/07/29 12:34:28;;;;;;;0.00;0.00;;;34.10;55.40;;;;;;5032563;28;20103;-72
2023/07/29 12:36:55;;;;;;;0.13;0.10;;;34.20;55.70;;;;;;5036372;28;20277;-72
2023/07/29 12:39:26;;;;;;;0.00;0.00;;;33.90;55.30;;;;;;5036881;28;20017;-74
2023/07/29 12:41:55;;;;;;;0.00;0.00;;;33.60;55.90;;;;;;5040512;28;20029;-75
2023/07/29 12:44:23;;;;;;;0.00;0.00;;;33.50;56.00;;;;;;5029884;28;20058;-73
2023/07/29 12:46:48;;;;;;;0.00;0.00;;;33.30;56.60;;;;;;5036746;28;20025;-72
2023/07/29 12:49:14;;;;;;;0.00;0.00;;;33.20;56.00;;;;;;5037572;28;20418;-72
2023/07/29 12:51:41;;;;;;;0.08;0.08;;;33.20;56.10;;;;;;5031727;28;20021;-71